Terminal Aerodrome Forecast
Issued by NWS

Home | Current Version | Previous Version | Text Only | Print | Product List | Glossary On
Versions: 1 2 3 4 5 6 7 8 9 10 11 12 13 14 15
000
FTUS46 KMTR 221723
TAFSJC
TAF
KSJC 221723Z 2218/2318 30009KT P6SM FEW015 FEW035 SCT150
     FM222100 30012G20KT P6SM FEW020 FEW040 SCT150
     FM230600 30009KT P6SM FEW030 FEW150
     FM231000 30005KT P6SM FEW150=

USA.gov is the U.S. government's official web portal to all federal, state and local government web resources and services.